sensor_id;sensor_type;location;lat;lon;timestamp;pressure;altitude;pressure_sealevel;temperature;humidity
39141;BME280;24875;48.436;10.298;2024-03-02T00:00:36;95161.25;;;7.32;100.00
39141;BME280;24875;48.436;10.298;2024-03-02T00:03:04;95163.59;;;7.13;100.00
39141;BME280;24875;48.436;10.298;2024-03-02T00:05:30;95161.66;;;7.35;100.00
39141;BME280;24875;48.436;10.298;2024-03-02T00:07:59;95164.53;;;7.55;100.00
39141;BME280;24875;48.436;10.298;2024-03-02T00:10:29;95172.47;;;7.61;100.00
39141;BME280;24875;48.436;10.298;2024-03-02T00:13:02;95164.22;;;7.43;100.00
39141;BME280;24875;48.436;10.298;2024-03-02T00:15:51;95154.06;;;7.76;100.00
39141;BME280;24875;48.436;10.298;2024-03-02T00:18:19;95170.06;;;7.45;100.00
39141;BME280;24875;48.436;10.298;2024-03-02T00:20:46;95168.28;;;7.31;100.00
39141;BME280;24875;48.436;10.298;2024-03-02T00:23:15;95168.00;;;7.41;100.00
39141;BME280;24875;48.436;10.298;2024-03-02T00:25:44;95165.91;;;7.36;100.00
39141;BME280;24875;48.436;10.298;2024-03-02T00:28:14;95171.69;;;7.46;100.00
39141;BME280;24875;48.436;10.298;2024-03-02T00:30:55;95161.09;;;7.54;100.00
39141;BME280;24875;48.436;10.298;2024-03-02T00:33:22;95167.56;;;7.37;100.00
39141;BME280;24875;48.436;10.298;2024-03-02T00:35:49;95180.56;;;7.31;100.00
39141;BME280;24875;48.436;10.298;2024-03-02T00:38:17;95171.50;;;7.48;100.00
39141;BME280;24875;48.436;10.298;2024-03-02T00:40:44;95176.41;;;7.36;100.00
39141;BME280;24875;48.436;10.298;2024-03-02T00:43:38;95173.91;;;7.64;100.00
39141;BME280;24875;48.436;10.298;2024-03-02T00:46:06;95176.13;;;7.46;100.00
39141;BME280;24875;48.436;10.298;2024-03-02T00:48:32;95181.44;;;7.38;100.00
39141;BME280;24875;48.436;10.298;2024-03-02T00:51:01;95174.16;;;7.33;100.00
39141;BME280;24875;48.436;10.298;2024-03-02T00:53:31;95174.00;;;7.56;100.00
39141;BME280;24875;48.436;10.298;2024-03-02T00:55:58;95174.31;;;7.46;100.00
39141;BME280;24875;48.436;10.298;2024-03-02T00:58:25;95173.16;;;7.34;100.00
39141;BME280;24875;48.436;10.298;2024-03-02T01:00:51;95170.63;;;7.41;100.00
39141;BME280;24875;48.436;10.298;2024-03-02T01:03:18;95174.50;;;7.45;100.00
39141;BME280;24875;48.436;10.298;2024-03-02T01:05:45;95175.13;;;7.47;100.00
39141;BME280;24875;48.436;10.298;2024-03-02T01:08:11;95181.09;;;7.41;100.00
39141;BME280;24875;48.436;10.298;2024-03-02T01:10:39;95178.06;;;7.58;100.00
39141;BME280;24875;48.436;10.298;2024-03-02T01:13:06;95183.09;;;7.39;100.00
39141;BME280;24875;48.436;10.298;2024-03-02T01:15:33;95177.28;;;7.58;100.00
39141;BME280;24875;48.436;10.298;2024-03-02T01:17:59;95178.38;;;7.49;100.00
39141;BME280;24875;48.436;10.298;2024-03-02T01:20:26;95178.00;;;7.52;100.00
39141;BME280;24875;48.436;10.298;2024-03-02T01:22:52;95177.53;;;7.48;100.00
39141;BME280;24875;48.436;10.298;2024-03-02T01:25:19;95173.50;;;7.46;100.00
39141;BME280;24875;48.436;10.298;2024-03-02T01:27:47;95166.84;;;7.64;100.00
39141;BME280;24875;48.436;10.298;2024-03-02T01:30:14;95165.72;;;7.52;100.00
39141;BME280;24875;48.436;10.298;2024-03-02T01:32:40;95168.28;;;7.46;100.00
39141;BME280;24875;48.436;10.298;2024-03-02T01:35:07;95167.44;;;7.45;100.00
39141;BME280;24875;48.436;10.298;2024-03-02T01:37:34;95171.03;;;7.44;100.00
39141;BME280;24875;48.436;10.298;2024-03-02T01:40:00;95166.09;;;7.35;100.00
39141;BME280;24875;48.436;10.298;2024-03-02T01:42:28;95166.91;;;7.35;100.00
39141;BME280;24875;48.436;10.298;2024-03-02T01:44:55;95166.06;;;7.49;100.00
39141;BME280;24875;48.436;10.298;2024-03-02T01:47:22;95168.91;;;7.33;100.00
39141;BME280;24875;48.436;10.298;2024-03-02T01:49:48;95171.72;;;7.32;100.00
39141;BME280;24875;48.436;10.298;2024-03-02T01:52:16;95178.03;;;7.37;100.00
39141;BME280;24875;48.436;10.298;2024-03-02T01:54:42;95180.28;;;7.40;100.00
39141;BME280;24875;48.436;10.298;2024-03-02T01:57:09;95180.66;;;7.37;100.00
39141;BME280;24875;48.436;10.298;2024-03-02T01:59:36;95178.84;;;7.38;100.00
39141;BME280;24875;48.436;10.298;2024-03-02T02:02:04;95183.31;;;7.23;100.00
39141;BME280;24875;48.436;10.298;2024-03-02T02:04:30;95188.63;;;7.29;100.00
39141;BME280;24875;48.436;10.298;2024-03-02T02:06:58;95188.25;;;7.32;100.00
39141;BME280;24875;48.436;10.298;2024-03-02T02:09:24;95185.81;;;7.31;100.00
39141;BME280;24875;48.436;10.298;2024-03-02T02:11:51;95176.88;;;7.26;100.00
39141;BME280;24875;48.436;10.298;2024-03-02T02:14:18;95176.63;;;7.21;100.00
39141;BME280;24875;48.436;10.298;2024-03-02T02:16:44;95175.59;;;7.22;100.00
39141;BME280;24875;48.436;10.298;2024-03-02T02:19:13;95173.97;;;7.35;100.00
39141;BME280;24875;48.436;10.298;2024-03-02T02:21:43;95168.63;;;7.43;100.00
39141;BME280;24875;48.436;10.298;2024-03-02T02:24:10;95172.25;;;7.27;100.00
39141;BME280;24875;48.436;10.298;2024-03-02T02:26:38;95167.66;;;7.29;100.00
39141;BME280;24875;48.436;10.298;2024-03-02T02:29:04;95167.00;;;7.27;100.00
39141;BME280;24875;48.436;10.298;2024-03-02T02:31:36;95167.44;;;7.45;100.00
39141;BME280;24875;48.436;10.298;2024-03-02T02:34:03;95168.38;;;7.24;100.00
39141;BME280;24875;48.436;10.298;2024-03-02T02:36:30;95175.50;;;7.15;100.00
39141;BME280;24875;48.436;10.298;2024-03-02T02:38:58;95167.38;;;7.39;100.00
39141;BME280;24875;48.436;10.298;2024-03-02T02:41:28;95175.78;;;7.20;100.00
39141;BME280;24875;48.436;10.298;2024-03-02T02:43:55;95168.31;;;7.17;100.00
39141;BME280;24875;48.436;10.298;2024-03-02T02:46:21;95168.84;;;7.13;100.00
39141;BME280;24875;48.436;10.298;2024-03-02T02:48:48;95168.22;;;7.11;100.00
39141;BME280;24875;48.436;10.298;2024-03-02T02:51:16;95159.19;;;7.13;100.00
39141;BME280;24875;48.436;10.298;2024-03-02T02:53:43;95165.69;;;7.03;100.00
39141;BME280;24875;48.436;10.298;2024-03-02T02:56:10;95166.28;;;7.19;100.00
39141;BME280;24875;48.436;10.298;2024-03-02T02:58:37;95161.34;;;7.10;100.00
39141;BME280;24875;48.436;10.298;2024-03-02T03:01:03;95163.59;;;6.98;100.00
39141;BME280;24875;48.436;10.298;2024-03-02T03:03:30;95162.44;;;7.01;100.00
39141;BME280;24875;48.436;10.298;2024-03-02T03:05:56;95164.44;;;6.99;100.00
39141;BME280;24875;48.436;10.298;2024-03-02T03:08:23;95170.09;;;7.02;100.00
39141;BME280;24875;48.436;10.298;2024-03-02T03:10:49;95164.06;;;7.02;100.00
39141;BME280;24875;48.436;10.298;2024-03-02T03:13:17;95164.31;;;7.21;100.00
39141;BME280;24875;48.436;10.298;2024-03-02T03:15:44;95164.94;;;7.09;100.00
39141;BME280;24875;48.436;10.298;2024-03-02T03:18:10;95171.91;;;7.02;100.00
39141;BME280;24875;48.436;10.298;2024-03-02T03:20:37;95177.88;;;6.96;100.00
39141;BME280;24875;48.436;10.298;2024-03-02T03:23:03;95177.88;;;6.96;100.00
39141;BME280;24875;48.436;10.298;2024-03-02T03:25:30;95171.84;;;6.95;100.00
39141;BME280;24875;48.436;10.298;2024-03-02T03:27:56;95176.09;;;6.96;100.00
39141;BME280;24875;48.436;10.298;2024-03-02T03:30:24;95168.22;;;7.11;100.00
39141;BME280;24875;48.436;10.298;2024-03-02T03:32:51;95168.47;;;7.01;100.00
39141;BME280;24875;48.436;10.298;2024-03-02T03:35:17;95176.44;;;6.93;100.00
39141;BME280;24875;48.436;10.298;2024-03-02T03:37:44;95169.94;;;6.89;100.00
39141;BME280;24875;48.436;10.298;2024-03-02T03:40:11;95167.50;;;6.88;100.00
39141;BME280;24875;48.436;10.298;2024-03-02T03:42:39;95167.78;;;6.78;100.00
39141;BME280;24875;48.436;10.298;2024-03-02T03:45:06;95175.16;;;6.89;100.00
39141;BME280;24875;48.436;10.298;2024-03-02T03:47:34;95170.03;;;6.96;100.00
39141;BME280;24875;48.436;10.298;2024-03-02T03:50:01;95170.22;;;6.80;100.00
39141;BME280;24875;48.436;10.298;2024-03-02T03:52:32;95173.19;;;6.91;100.00
39141;BME280;24875;48.436;10.298;2024-03-02T03:54:58;95175.34;;;6.88;100.00
39141;BME280;24875;48.436;10.298;2024-03-02T03:57:25;95174.72;;;6.86;100.00
39141;BME280;24875;48.436;10.298;2024-03-02T03:59:51;95177.97;;;6.88;100.00
39141;BME280;24875;48.436;10.298;2024-03-02T04:02:18;95172.72;;;6.88;100.00
39141;BME280;24875;48.436;10.298;2024-03-02T04:04:46;95181.41;;;7.03;100.00
39141;BME280;24875;48.436;10.298;2024-03-02T04:07:12;95178.63;;;6.90;100.00
39141;BME280;24875;48.436;10.298;2024-03-02T04:09:39;95183.22;;;6.88;100.00
39141;BME280;24875;48.436;10.298;2024-03-02T04:12:06;95181.94;;;6.84;100.00
39141;BME280;24875;48.436;10.298;2024-03-02T04:14:32;95181.84;;;6.77;100.00
39141;BME280;24875;48.436;10.298;2024-03-02T04:16:59;95180.81;;;6.64;100.00
39141;BME280;24875;48.436;10.298;2024-03-02T04:19:26;95189.66;;;6.63;100.00
39141;BME280;24875;48.436;10.298;2024-03-02T04:21:53;95174.53;;;6.73;100.00
39141;BME280;24875;48.436;10.298;2024-03-02T04:24:20;95182.94;;;6.68;100.00
39141;BME280;24875;48.436;10.298;2024-03-02T04:26:46;95179.66;;;6.66;100.00
39141;BME280;24875;48.436;10.298;2024-03-02T04:29:13;95184.56;;;6.69;100.00
39141;BME280;24875;48.436;10.298;2024-03-02T04:31:40;95176.44;;;6.65;100.00
39141;BME280;24875;48.436;10.298;2024-03-02T04:34:06;95177.41;;;6.64;100.00
39141;BME280;24875;48.436;10.298;2024-03-02T04:36:33;95182.09;;;6.68;100.00
39141;BME280;24875;48.436;10.298;2024-03-02T04:39:01;95171.19;;;6.79;100.00
39141;BME280;24875;48.436;10.298;2024-03-02T04:41:27;95171.28;;;6.71;100.00
39141;BME280;24875;48.436;10.298;2024-03-02T04:43:54;95170.91;;;6.74;100.00
39141;BME280;24875;48.436;10.298;2024-03-02T04:46:21;95162.97;;;6.82;100.00
39141;BME280;24875;48.436;10.298;2024-03-02T04:48:47;95169.13;;;6.89;100.00
39141;BME280;24875;48.436;10.298;2024-03-02T04:51:20;95167.97;;;6.91;100.00
39141;BME280;24875;48.436;10.298;2024-03-02T04:53:46;95171.28;;;7.00;100.00
39141;BME280;24875;48.436;10.298;2024-03-02T04:56:14;95167.38;;;7.10;100.00
39141;BME280;24875;48.436;10.298;2024-03-02T04:59:05;95172.28;;;6.99;100.00
39141;BME280;24875;48.436;10.298;2024-03-02T05:01:32;95174.72;;;7.00;100.00
39141;BME280;24875;48.436;10.298;2024-03-02T05:03:58;95176.09;;;6.96;100.00
39141;BME280;24875;48.436;10.298;2024-03-02T05:06:25;95179.78;;;7.02;100.00
39141;BME280;24875;48.436;10.298;2024-03-02T05:08:51;95187.00;;;7.00;100.00
39141;BME280;24875;48.436;10.298;2024-03-02T05:11:19;95190.72;;;7.05;100.00
39141;BME280;24875;48.436;10.298;2024-03-02T05:14:10;95191.88;;;6.88;100.00
39141;BME280;24875;48.436;10.298;2024-03-02T05:16:36;95200.09;;;7.00;100.00
39141;BME280;24875;48.436;10.298;2024-03-02T05:19:03;95207.56;;;6.74;100.00
39141;BME280;24875;48.436;10.298;2024-03-02T05:21:31;95198.16;;;6.65;100.00
39141;BME280;24875;48.436;10.298;2024-03-02T05:23:58;95204.31;;;6.72;100.00
39141;BME280;24875;48.436;10.298;2024-03-02T05:26:26;95205.75;;;6.60;100.00
39141;BME280;24875;48.436;10.298;2024-03-02T05:28:53;95208.44;;;6.52;100.00
39141;BME280;24875;48.436;10.298;2024-03-02T05:31:20;95211.91;;;6.67;100.00
39141;BME280;24875;48.436;10.298;2024-03-02T05:33:46;95209.97;;;6.61;100.00
39141;BME280;24875;48.436;10.298;2024-03-02T05:36:13;95209.72;;;6.70;100.00
39141;BME280;24875;48.436;10.298;2024-03-02T05:38:39;95208.56;;;6.73;100.00
39141;BME280;24875;48.436;10.298;2024-03-02T05:41:06;95208.28;;;6.68;100.00
39141;BME280;24875;48.436;10.298;2024-03-02T05:43:34;95214.63;;;6.88;100.00
39141;BME280;24875;48.436;10.298;2024-03-02T05:46:01;95211.06;;;6.66;100.00
39141;BME280;24875;48.436;10.298;2024-03-02T05:48:28;95207.66;;;6.66;100.00
39141;BME280;24875;48.436;10.298;2024-03-02T05:50:54;95217.47;;;6.64;100.00
39141;BME280;24875;48.436;10.298;2024-03-02T05:53:21;95212.69;;;6.53;100.00
39141;BME280;24875;48.436;10.298;2024-03-02T05:55:48;95211.81;;;6.38;100.00
39141;BME280;24875;48.436;10.298;2024-03-02T05:58:18;95221.31;;;6.39;100.00
39141;BME280;24875;48.436;10.298;2024-03-02T06:00:57;95219.41;;;6.48;100.00
39141;BME280;24875;48.436;10.298;2024-03-02T06:03:24;95228.66;;;6.21;100.00
39141;BME280;24875;48.436;10.298;2024-03-02T06:05:52;95221.81;;;6.35;100.00
39141;BME280;24875;48.436;10.298;2024-03-02T06:08:18;95229.16;;;6.39;100.00
39141;BME280;24875;48.436;10.298;2024-03-02T06:10:45;95231.78;;;6.39;100.00
39141;BME280;24875;48.436;10.298;2024-03-02T06:13:12;95231.22;;;6.44;100.00
39141;BME280;24875;48.436;10.298;2024-03-02T06:15:38;95227.91;;;6.50;100.00
39141;BME280;24875;48.436;10.298;2024-03-02T06:18:06;95224.16;;;6.66;100.00
39141;BME280;24875;48.436;10.298;2024-03-02T06:20:33;95224.13;;;6.52;100.00
39141;BME280;24875;48.436;10.298;2024-03-02T06:23:00;95229.09;;;6.62;100.00
39141;BME280;24875;48.436;10.298;2024-03-02T06:25:26;95232.84;;;6.67;100.00
39141;BME280;24875;48.436;10.298;2024-03-02T06:27:53;95235.38;;;6.75;100.00
39141;BME280;24875;48.436;10.298;2024-03-02T06:30:19;95237.00;;;6.76;100.00
39141;BME280;24875;48.436;10.298;2024-03-02T06:32:46;95242.97;;;6.84;100.00
39141;BME280;24875;48.436;10.298;2024-03-02T06:35:14;95243.34;;;6.96;100.00
39141;BME280;24875;48.436;10.298;2024-03-02T06:37:40;95240.44;;;6.76;100.00
39141;BME280;24875;48.436;10.298;2024-03-02T06:40:08;95239.09;;;6.95;100.00
39141;BME280;24875;48.436;10.298;2024-03-02T06:42:34;95234.88;;;6.94;100.00
39141;BME280;24875;48.436;10.298;2024-03-02T06:45:01;95226.91;;;7.02;100.00
39141;BME280;24875;48.436;10.298;2024-03-02T06:47:28;95240.09;;;6.94;100.00
39141;BME280;24875;48.436;10.298;2024-03-02T06:49:54;95231.88;;;6.97;100.00
39141;BME280;24875;48.436;10.298;2024-03-02T06:52:24;95236.59;;;7.16;100.00
39141;BME280;24875;48.436;10.298;2024-03-02T06:54:50;95227.63;;;6.96;100.00
39141;BME280;24875;48.436;10.298;2024-03-02T06:57:17;95231.69;;;7.13;100.00
39141;BME280;24875;48.436;10.298;2024-03-02T06:59:45;95231.53;;;7.28;100.00
39141;BME280;24875;48.436;10.298;2024-03-02T07:02:11;95221.50;;;7.46;100.00
39141;BME280;24875;48.436;10.298;2024-03-02T07:04:38;95223.94;;;7.33;100.00
39141;BME280;24875;48.436;10.298;2024-03-02T07:07:04;95232.06;;;7.53;100.00
39141;BME280;24875;48.436;10.298;2024-03-02T07:09:32;95217.00;;;7.76;100.00
39141;BME280;24875;48.436;10.298;2024-03-02T07:11:59;95223.97;;;7.69;100.00
39141;BME280;24875;48.436;10.298;2024-03-02T07:14:26;95227.75;;;7.81;100.00
39141;BME280;24875;48.436;10.298;2024-03-02T07:17:13;95222.09;;;7.98;100.00
39141;BME280;24875;48.436;10.298;2024-03-02T07:19:38;95226.53;;;7.97;100.00
39141;BME280;24875;48.436;10.298;2024-03-02T07:22:06;95221.16;;;8.20;100.00
39141;BME280;24875;48.436;10.298;2024-03-02T07:24:39;95221.03;;;8.28;100.00
39141;BME280;24875;48.436;10.298;2024-03-02T07:27:06;95231.59;;;8.13;100.00
39141;BME280;24875;48.436;10.298;2024-03-02T07:29:32;95234.34;;;8.12;100.00
39141;BME280;24875;48.436;10.298;2024-03-02T07:31:59;95238.91;;;8.03;100.00
39141;BME280;24875;48.436;10.298;2024-03-02T07:34:25;95243.69;;;7.79;100.00
39141;BME280;24875;48.436;10.298;2024-03-02T07:36:52;95240.03;;;7.80;100.00
39141;BME280;24875;48.436;10.298;2024-03-02T07:39:19;95243.41;;;7.74;100.00
39141;BME280;24875;48.436;10.298;2024-03-02T07:41:47;95259.28;;;7.37;100.00
39141;BME280;24875;48.436;10.298;2024-03-02T07:44:14;95255.00;;;7.51;100.00
39141;BME280;24875;48.436;10.298;2024-03-02T07:46:40;95256.91;;;7.42;100.00
39141;BME280;24875;48.436;10.298;2024-03-02T07:49:07;95249.50;;;7.60;100.00
39141;BME280;24875;48.436;10.298;2024-03-02T07:51:34;95253.66;;;7.40;100.00
39141;BME280;24875;48.436;10.298;2024-03-02T07:54:01;95244.97;;;7.54;100.00
39141;BME280;24875;48.436;10.298;2024-03-02T07:56:28;95252.38;;;7.65;100.00
39141;BME280;24875;48.436;10.298;2024-03-02T07:58:55;95246.47;;;7.78;100.00
39141;BME280;24875;48.436;10.298;2024-03-02T08:01:26;95245.66;;;7.77;100.00
39141;BME280;24875;48.436;10.298;2024-03-02T08:03:52;95238.06;;;7.82;100.00
39141;BME280;24875;48.436;10.298;2024-03-02T08:06:20;95239.44;;;7.99;100.00
39141;BME280;24875;48.436;10.298;2024-03-02T08:08:47;95243.16;;;8.19;100.00
39141;BME280;24875;48.436;10.298;2024-03-02T08:11:13;95244.13;;;8.18;100.00
39141;BME280;24875;48.436;10.298;2024-03-02T08:13:40;95247.00;;;8.23;100.00
39141;BME280;24875;48.436;10.298;2024-03-02T08:16:08;95248.00;;;8.63;100.00
39141;BME280;24875;48.436;10.298;2024-03-02T08:18:34;95242.34;;;8.39;100.00
39141;BME280;24875;48.436;10.298;2024-03-02T08:21:01;95242.75;;;8.63;100.00
39141;BME280;24875;48.436;10.298;2024-03-02T08:23:27;95244.09;;;8.53;100.00
39141;BME280;24875;48.436;10.298;2024-03-02T08:25:54;95242.56;;;8.65;100.00
39141;BME280;24875;48.436;10.298;2024-03-02T08:28:20;95243.91;;;8.54;100.00
39141;BME280;24875;48.436;10.298;2024-03-02T08:30:47;95239.41;;;8.69;100.00
39141;BME280;24875;48.436;10.298;2024-03-02T08:33:15;95246.53;;;8.54;100.00
39141;BME280;24875;48.436;10.298;2024-03-02T08:35:41;95248.09;;;8.49;100.00
39141;BME280;24875;48.436;10.298;2024-03-02T08:38:08;95246.88;;;8.72;100.00
39141;BME280;24875;48.436;10.298;2024-03-02T08:40:35;95243.22;;;8.94;100.00
39141;BME280;24875;48.436;10.298;2024-03-02T08:43:01;95242.03;;;8.97;100.00
39141;BME280;24875;48.436;10.298;2024-03-02T08:45:28;95241.59;;;9.20;100.00
39141;BME280;24875;48.436;10.298;2024-03-02T08:47:54;95238.00;;;9.28;100.00
39141;BME280;24875;48.436;10.298;2024-03-02T08:50:22;95241.50;;;9.41;100.00
39141;BME280;24875;48.436;10.298;2024-03-02T08:52:49;95240.97;;;9.18;100.00
39141;BME280;24875;48.436;10.298;2024-03-02T08:55:15;95244.59;;;9.17;100.00
39141;BME280;24875;48.436;10.298;2024-03-02T08:57:42;95239.28;;;9.11;100.00
39141;BME280;24875;48.436;10.298;2024-03-02T09:00:09;95246.97;;;9.12;100.00
39141;BME280;24875;48.436;10.298;2024-03-02T09:02:36;95243.63;;;9.25;100.00
39141;BME280;24875;48.436;10.298;2024-03-02T09:05:04;95239.78;;;9.55;100.00
39141;BME280;24875;48.436;10.298;2024-03-02T09:07:32;95239.38;;;9.58;100.00
39141;BME280;24875;48.436;10.298;2024-03-02T09:09:58;95235.63;;;9.79;100.00
39141;BME280;24875;48.436;10.298;2024-03-02T09:12:25;95242.50;;;9.80;100.00
39141;BME280;24875;48.436;10.298;2024-03-02T09:14:52;95239.91;;;9.47;100.00
39141;BME280;24875;48.436;10.298;2024-03-02T09:17:18;95241.66;;;9.73;100.00
39141;BME280;24875;48.436;10.298;2024-03-02T09:19:45;95241.53;;;9.88;100.00
39141;BME280;24875;48.436;10.298;2024-03-02T09:22:12;95236.06;;;9.89;100.00
39141;BME280;24875;48.436;10.298;2024-03-02T09:24:40;95232.28;;;9.98;100.00
39141;BME280;24875;48.436;10.298;2024-03-02T09:27:07;95233.28;;;9.97;100.00
39141;BME280;24875;48.436;10.298;2024-03-02T09:29:33;95240.13;;;9.85;100.00
39141;BME280;24875;48.436;10.298;2024-03-02T09:32:00;95232.03;;;9.87;100.00
39141;BME280;24875;48.436;10.298;2024-03-02T09:34:26;95234.84;;;9.85;100.00
39141;BME280;24875;48.436;10.298;2024-03-02T09:36:53;95229.00;;;9.43;100.00
39141;BME280;24875;48.436;10.298;2024-03-02T09:39:19;95230.59;;;9.44;100.00
39141;BME280;24875;48.436;10.298;2024-03-02T09:41:48;95236.88;;;9.90;100.00
39141;BME280;24875;48.436;10.298;2024-03-02T09:44:14;95229.03;;;9.96;100.00
39141;BME280;24875;48.436;10.298;2024-03-02T09:46:41;95220.69;;;9.86;100.00
39141;BME280;24875;48.436;10.298;2024-03-02T09:49:09;95228.50;;;10.20;100.00
39141;BME280;24875;48.436;10.298;2024-03-02T09:51:36;95220.50;;;10.60;100.00
39141;BME280;24875;48.436;10.298;2024-03-02T09:54:03;95223.34;;;10.78;100.00
39141;BME280;24875;48.436;10.298;2024-03-02T09:56:31;95226.78;;;10.79;100.00
39141;BME280;24875;48.436;10.298;2024-03-02T09:58:59;95225.75;;;10.80;100.00
39141;BME280;24875;48.436;10.298;2024-03-02T10:01:25;95229.94;;;10.29;100.00
39141;BME280;24875;48.436;10.298;2024-03-02T10:03:53;95224.69;;;10.35;100.00
39141;BME280;24875;48.436;10.298;2024-03-02T10:06:21;95220.66;;;10.59;100.00
39141;BME280;24875;48.436;10.298;2024-03-02T10:08:48;95222.09;;;10.55;100.00
39141;BME280;24875;48.436;10.298;2024-03-02T10:11:26;95217.44;;;10.83;100.00
39141;BME280;24875;48.436;10.298;2024-03-02T10:14:05;95207.09;;;10.81;100.00
39141;BME280;24875;48.436;10.298;2024-03-02T10:16:34;95207.13;;;10.75;100.00
39141;BME280;24875;48.436;10.298;2024-03-02T10:19:15;95200.56;;;11.22;100.00
39141;BME280;24875;48.436;10.298;2024-03-02T10:21:41;95206.47;;;10.86;100.00
39141;BME280;24875;48.436;10.298;2024-03-02T10:24:08;95204.41;;;11.26;100.00
39141;BME280;24875;48.436;10.298;2024-03-02T10:26:35;95198.56;;;11.18;100.00
39141;BME280;24875;48.436;10.298;2024-03-02T10:29:01;95200.56;;;11.29;100.00
39141;BME280;24875;48.436;10.298;2024-03-02T10:31:30;95194.78;;;11.70;100.00
39141;BME280;24875;48.436;10.298;2024-03-02T10:33:57;95193.63;;;11.60;100.00
39141;BME280;24875;48.436;10.298;2024-03-02T10:36:25;95188.22;;;11.86;100.00
39141;BME280;24875;48.436;10.298;2024-03-02T10:38:51;95185.78;;;11.91;100.00
39141;BME280;24875;48.436;10.298;2024-03-02T10:41:22;95184.44;;;12.13;100.00
39141;BME280;24875;48.436;10.298;2024-03-02T10:43:51;95184.78;;;12.22;100.00
39141;BME280;24875;48.436;10.298;2024-03-02T10:46:22;95179.97;;;12.13;100.00
39141;BME280;24875;48.436;10.298;2024-03-02T10:48:50;95175.41;;;12.26;100.00
39141;BME280;24875;48.436;10.298;2024-03-02T10:51:17;95175.03;;;11.86;100.00
39141;BME280;24875;48.436;10.298;2024-03-02T10:53:43;95174.47;;;11.71;100.00
39141;BME280;24875;48.436;10.298;2024-03-02T10:56:15;95163.28;;;11.82;100.00
39141;BME280;24875;48.436;10.298;2024-03-02T10:58:43;95169.97;;;11.84;100.00
39141;BME280;24875;48.436;10.298;2024-03-02T11:01:10;95172.66;;;11.71;100.00
39141;BME280;24875;48.436;10.298;2024-03-02T11:03:38;95154.88;;;11.98;100.00
39141;BME280;24875;48.436;10.298;2024-03-02T11:06:08;95156.53;;;11.92;100.00
39141;BME280;24875;48.436;10.298;2024-03-02T11:08:38;95152.41;;;12.03;100.00
39141;BME280;24875;48.436;10.298;2024-03-02T11:11:07;95153.66;;;11.94;100.00
39141;BME280;24875;48.436;10.298;2024-03-02T11:13:37;95146.34;;;11.96;100.00
39141;BME280;24875;48.436;10.298;2024-03-02T11:16:12;95143.28;;;11.61;100.00
39141;BME280;24875;48.436;10.298;2024-03-02T11:18:40;95134.56;;;11.61;100.00
39141;BME280;24875;48.436;10.298;2024-03-02T11:21:09;95126.94;;;12.15;100.00
39141;BME280;24875;48.436;10.298;2024-03-02T11:23:36;95125.06;;;11.91;100.00
39141;BME280;24875;48.436;10.298;2024-03-02T11:26:16;95121.56;;;12.27;100.00
39141;BME280;24875;48.436;10.298;2024-03-02T11:28:43;95111.34;;;12.62;100.00
39141;BME280;24875;48.436;10.298;2024-03-02T11:31:10;95110.09;;;12.16;100.00
39141;BME280;24875;48.436;10.298;2024-03-02T11:33:37;95110.88;;;12.16;100.00
39141;BME280;24875;48.436;10.298;2024-03-02T11:36:06;95109.00;;;12.23;100.00
39141;BME280;24875;48.436;10.298;2024-03-02T11:38:35;95104.28;;;12.01;100.00
39141;BME280;24875;48.436;10.298;2024-03-02T11:41:02;95098.88;;;11.89;100.00
39141;BME280;24875;48.436;10.298;2024-03-02T11:43:32;95095.84;;;12.16;100.00
39141;BME280;24875;48.436;10.298;2024-03-02T11:46:00;95083.94;;;12.56;100.00
39141;BME280;24875;48.436;10.298;2024-03-02T11:48:29;95073.41;;;12.98;100.00
39141;BME280;24875;48.436;10.298;2024-03-02T11:50:58;95070.19;;;13.14;100.00
39141;BME280;24875;48.436;10.298;2024-03-02T11:53:26;95077.22;;;13.38;100.00
39141;BME280;24875;48.436;10.298;2024-03-02T11:55:55;95074.72;;;13.61;100.00
39141;BME280;24875;48.436;10.298;2024-03-02T11:58:22;95074.44;;;13.33;100.00
39141;BME280;24875;48.436;10.298;2024-03-02T12:00:52;95065.81;;;13.38;100.00
39141;BME280;24875;48.436;10.298;2024-03-02T12:03:20;95065.66;;;13.68;100.00
39141;BME280;24875;48.436;10.298;2024-03-02T12:05:49;95063.59;;;13.52;100.00
39141;BME280;24875;48.436;10.298;2024-03-02T12:08:16;95058.47;;;13.57;100.00
39141;BME280;24875;48.436;10.298;2024-03-02T12:10:43;95053.31;;;13.62;100.00
39141;BME280;24875;48.436;10.298;2024-03-02T12:13:11;95055.72;;;13.64;100.00
39141;BME280;24875;48.436;10.298;2024-03-02T12:15:38;95045.22;;;13.87;100.00
39141;BME280;24875;48.436;10.298;2024-03-02T12:18:06;95043.31;;;14.05;100.00
39141;BME280;24875;48.436;10.298;2024-03-02T12:20:33;95032.38;;;14.54;100.00
39141;BME280;24875;48.436;10.298;2024-03-02T12:23:00;95030.16;;;14.39;100.00
39141;BME280;24875;48.436;10.298;2024-03-02T12:25:28;95033.84;;;14.27;100.00
39141;BME280;24875;48.436;10.298;2024-03-02T12:28:00;95027.28;;;14.63;100.00
39141;BME280;24875;48.436;10.298;2024-03-02T12:30:29;95022.44;;;14.83;100.00
39141;BME280;24875;48.436;10.298;2024-03-02T12:32:56;95022.94;;;14.69;100.00
39141;BME280;24875;48.436;10.298;2024-03-02T12:35:24;95013.50;;;15.35;100.00
39141;BME280;24875;48.436;10.298;2024-03-02T12:37:52;95011.56;;;15.08;100.00
39141;BME280;24875;48.436;10.298;2024-03-02T12:40:19;95008.47;;;14.99;100.00
39141;BME280;24875;48.436;10.298;2024-03-02T12:42:48;95005.50;;;14.73;100.00
39141;BME280;24875;48.436;10.298;2024-03-02T12:45:15;94997.22;;;14.47;100.00
39141;BME280;24875;48.436;10.298;2024-03-02T12:47:50;94992.34;;;15.01;100.00
39141;BME280;24875;48.436;10.298;2024-03-02T12:50:17;94990.59;;;15.06;100.00